createdAt,value
2018-03-14T00:02:15.320Z,13.07
2018-03-14T00:04:43.619Z,11.02
2018-03-14T00:07:11.138Z,11.30
2018-03-14T00:09:38.687Z,12.80
2018-03-14T00:12:06.231Z,13.50
2018-03-14T00:14:33.800Z,11.90
2018-03-14T00:17:02.096Z,9.00
2018-03-14T00:19:29.656Z,10.35
2018-03-14T00:21:57.194Z,11.00
2018-03-14T00:24:24.756Z,14.02
2018-03-14T00:26:52.278Z,13.25
2018-03-14T00:29:19.882Z,11.38
2018-03-14T00:31:47.351Z,10.43
2018-03-14T00:34:14.905Z,7.80
2018-03-14T00:36:42.432Z,14.05
2018-03-14T00:39:09.999Z,10.65
2018-03-14T00:41:37.591Z,15.32
2018-03-14T00:44:05.171Z,11.55
2018-03-14T00:46:33.470Z,13.77
2018-03-14T00:49:01.025Z,16.52
2018-03-14T00:51:28.547Z,13.82
2018-03-14T00:53:56.123Z,13.52
2018-03-14T00:56:23.670Z,14.27
2018-03-14T00:58:51.211Z,14.70
2018-03-14T01:01:18.752Z,16.48
2018-03-14T01:03:46.294Z,14.07
2018-03-14T01:06:13.888Z,16.62
2018-03-14T01:08:41.419Z,14.43
2018-03-14T01:11:08.952Z,16.48
2018-03-14T01:13:37.240Z,14.25
2018-03-14T01:16:04.833Z,13.18
2018-03-14T01:18:32.388Z,15.95
2018-03-14T01:20:59.998Z,15.65
2018-03-14T01:23:28.326Z,14.27
2018-03-14T01:25:55.873Z,16.02
2018-03-14T01:28:23.414Z,15.55
2018-03-14T01:30:50.947Z,10.48
2018-03-14T01:33:18.477Z,13.52
2018-03-14T01:35:46.022Z,11.32
2018-03-14T01:38:13.557Z,14.07
2018-03-14T01:40:41.880Z,14.20
2018-03-14T01:43:09.393Z,12.85
2018-03-14T01:45:36.929Z,9.88
2018-03-14T01:48:04.445Z,15.45
2018-03-14T01:50:31.972Z,11.38
2018-03-14T01:53:11.268Z,8.88
2018-03-14T01:55:38.806Z,14.10
2018-03-14T01:58:06.356Z,11.77
2018-03-14T02:00:33.884Z,12.65
2018-03-14T02:03:01.416Z,14.30
2018-03-14T02:05:28.966Z,12.48
2018-03-14T02:07:56.511Z,13.45
2018-03-14T02:10:24.044Z,12.27
2018-03-14T02:12:51.602Z,13.68
2018-03-14T02:15:19.134Z,13.88
2018-03-14T02:17:47.443Z,9.75
2018-03-14T02:20:14.992Z,13.62
2018-03-14T02:22:42.528Z,12.75
2018-03-14T02:25:10.815Z,11.73
2018-03-14T02:27:39.095Z,10.57
2018-03-14T02:30:07.392Z,13.52
2018-03-14T02:32:34.955Z,10.63
2018-03-14T02:35:02.473Z,11.88
2018-03-14T02:37:29.993Z,8.32
2018-03-14T02:39:57.518Z,9.45
2018-03-14T02:42:25.050Z,6.57
2018-03-14T02:44:52.569Z,9.45
2018-03-14T02:47:20.073Z,8.75
2018-03-14T02:49:47.572Z,11.30
2018-03-14T02:52:15.099Z,9.50
2018-03-14T02:54:43.424Z,6.80
2018-03-14T02:57:10.975Z,9.00
2018-03-14T02:59:38.501Z,7.55
2018-03-14T03:02:06.018Z,9.93
2018-03-14T03:04:33.522Z,10.00
2018-03-14T03:07:01.108Z,9.95
2018-03-14T03:09:28.642Z,11.32
2018-03-14T03:11:56.935Z,10.00
2018-03-14T03:14:24.438Z,10.70
2018-03-14T03:16:51.940Z,7.00
2018-03-14T03:19:20.285Z,7.20
2018-03-14T03:21:47.779Z,8.48
2018-03-14T03:24:15.286Z,8.43
2018-03-14T03:26:42.791Z,9.70
2018-03-14T03:29:11.131Z,10.02
2018-03-14T03:31:38.633Z,12.60
2018-03-14T03:34:06.152Z,10.05
2018-03-14T03:36:33.660Z,8.65
2018-03-14T03:39:01.959Z,8.27
2018-03-14T03:41:29.470Z,9.68
2018-03-14T03:43:56.976Z,9.25
2018-03-14T03:46:24.483Z,9.80
2018-03-14T03:48:51.985Z,11.10
2018-03-14T03:51:19.488Z,9.25
2018-03-14T03:53:46.993Z,11.43
2018-03-14T03:56:14.508Z,7.72
2018-03-14T03:58:42.022Z,9.68
2018-03-14T04:01:09.537Z,8.65
2018-03-14T04:03:37.041Z,9.13
2018-03-14T04:06:04.547Z,6.75
2018-03-14T04:08:32.060Z,9.40
2018-03-14T04:10:59.568Z,9.68
2018-03-14T04:13:27.073Z,8.13
2018-03-14T04:15:54.608Z,10.40
2018-03-14T04:18:22.118Z,8.75
2018-03-14T04:20:49.637Z,11.27
2018-03-14T04:23:17.914Z,7.35
2018-03-14T04:25:45.445Z,10.30
2018-03-14T04:28:12.950Z,9.93
2018-03-14T04:30:40.488Z,7.12
2018-03-14T04:33:08.002Z,9.75
2018-03-14T04:35:35.527Z,7.18
2018-03-14T04:38:03.029Z,8.60
2018-03-14T04:40:30.530Z,9.27
2018-03-14T04:42:58.049Z,9.25
2018-03-14T04:45:25.560Z,6.75
2018-03-14T04:47:53.104Z,8.35
2018-03-14T04:50:20.648Z,9.77
2018-03-14T04:52:48.141Z,8.25
2018-03-14T04:55:15.749Z,7.80
2018-03-14T04:57:43.244Z,7.15
2018-03-14T05:00:10.769Z,6.75
2018-03-14T05:02:38.322Z,8.20
2018-03-14T05:05:05.829Z,7.72
2018-03-14T05:07:34.118Z,7.95
2018-03-14T05:10:01.627Z,7.90
2018-03-14T05:12:29.259Z,5.05
2018-03-14T05:14:56.786Z,8.48
2018-03-14T05:17:25.235Z,8.43
2018-03-14T05:19:52.773Z,8.77
2018-03-14T05:22:20.306Z,8.98
2018-03-14T05:24:47.837Z,9.35
2018-03-14T05:27:15.363Z,9.75
2018-03-14T05:29:42.880Z,7.72
2018-03-14T05:32:10.406Z,8.35
2018-03-14T05:34:38.037Z,7.03
2018-03-14T05:37:05.513Z,7.15
2018-03-14T05:39:33.041Z,7.28
2018-03-14T05:42:00.563Z,7.93
2018-03-14T05:44:28.839Z,5.30
2018-03-14T05:46:56.365Z,7.30
2018-03-14T05:49:23.893Z,7.22
2018-03-14T05:51:51.394Z,7.87
2018-03-14T05:54:18.909Z,8.85
2018-03-14T05:56:46.437Z,7.32
2018-03-14T05:59:13.943Z,9.52
2018-03-14T06:01:42.379Z,6.62
2018-03-14T06:04:09.888Z,5.22
2018-03-14T06:06:37.416Z,4.95
2018-03-14T06:09:04.933Z,9.43
2018-03-14T06:11:32.483Z,7.03
2018-03-14T06:13:59.993Z,4.97
2018-03-14T06:16:27.633Z,6.10
2018-03-14T06:18:55.083Z,7.65
2018-03-14T06:21:23.407Z,8.73
2018-03-14T06:23:50.915Z,7.30
2018-03-14T06:26:19.103Z,7.20
2018-03-14T06:28:47.408Z,6.87
2018-03-14T06:31:14.933Z,6.62
2018-03-14T06:33:42.442Z,7.35
2018-03-14T06:36:09.943Z,5.25
2018-03-14T06:38:37.446Z,6.00
2018-03-14T06:41:04.960Z,6.07
2018-03-14T06:43:33.239Z,7.47
2018-03-14T06:46:00.731Z,9.20
2018-03-14T06:48:28.371Z,5.72
2018-03-14T06:50:56.677Z,6.80
2018-03-14T06:53:24.196Z,8.00
2018-03-14T06:55:52.485Z,7.62
2018-03-14T06:58:32.586Z,7.93
2018-03-14T07:01:11.964Z,5.12
2018-03-14T07:03:51.147Z,4.45
2018-03-14T07:06:18.667Z,4.85
2018-03-14T07:08:46.163Z,8.40
2018-03-14T07:11:13.674Z,10.02
2018-03-14T07:13:42.105Z,8.63
2018-03-14T07:16:09.626Z,7.85
2018-03-14T07:18:37.144Z,9.48
2018-03-14T07:21:04.676Z,7.18
2018-03-14T07:23:32.244Z,7.53
2018-03-14T07:25:59.761Z,11.07
2018-03-14T07:28:30.154Z,8.02
2018-03-14T07:30:58.836Z,10.35
2018-03-14T07:33:26.432Z,10.07
2018-03-14T07:35:54.025Z,9.23
2018-03-14T07:38:21.554Z,11.90
2018-03-14T07:40:49.073Z,11.18
2018-03-14T07:43:16.577Z,10.15
2018-03-14T07:45:44.852Z,12.50
2018-03-14T07:48:13.132Z,10.35
2018-03-14T07:50:41.400Z,11.48
2018-03-14T07:53:09.740Z,12.90
2018-03-14T07:55:37.238Z,8.27
2018-03-14T07:58:04.786Z,11.73
2018-03-14T08:00:32.341Z,7.10
2018-03-14T08:02:59.836Z,11.65
2018-03-14T08:05:27.429Z,11.93
2018-03-14T08:07:54.938Z,10.20
2018-03-14T08:10:22.470Z,10.30
2018-03-14T08:12:49.963Z,10.23
2018-03-14T08:15:18.229Z,9.45
2018-03-14T08:17:46.528Z,11.45
2018-03-14T08:20:14.037Z,10.88
2018-03-14T08:22:41.583Z,11.75
2018-03-14T08:25:09.120Z,11.23
2018-03-14T08:27:36.636Z,10.10
2018-03-14T08:30:04.180Z,12.18
2018-03-14T08:32:31.722Z,13.18
2018-03-14T08:34:59.483Z,15.15
2018-03-14T08:37:27.070Z,14.07
2018-03-14T08:39:54.616Z,13.50
2018-03-14T08:42:22.132Z,14.38
2018-03-14T08:44:49.679Z,14.23
2018-03-14T08:47:17.223Z,12.32
2018-03-14T08:49:44.755Z,12.68
2018-03-14T08:52:12.306Z,12.43
2018-03-14T08:54:39.810Z,13.65
2018-03-14T08:57:08.102Z,11.07
2018-03-14T08:59:36.381Z,13.23
2018-03-14T09:02:03.887Z,12.30
2018-03-14T09:04:31.433Z,13.57
2018-03-14T09:06:58.962Z,13.40
2018-03-14T09:09:26.471Z,13.13
2018-03-14T09:11:54.009Z,12.07
2018-03-14T09:14:21.527Z,12.07
2018-03-14T09:16:49.827Z,21.60
2018-03-14T09:19:17.335Z,12.00
2018-03-14T09:21:44.850Z,10.63
2018-03-14T09:24:12.378Z,11.45
2018-03-14T09:26:40.694Z,12.20
2018-03-14T09:29:08.209Z,12.20
2018-03-14T09:31:36.510Z,12.20
2018-03-14T09:34:04.024Z,12.52
2018-03-14T09:36:31.537Z,10.23
2018-03-14T09:38:59.227Z,10.95
2018-03-14T09:41:26.779Z,11.63
2018-03-14T09:43:54.316Z,11.93
2018-03-14T09:46:21.924Z,13.23
2018-03-14T09:48:49.426Z,11.32
2018-03-14T09:51:17.702Z,12.43
2018-03-14T09:53:45.229Z,11.40
2018-03-14T09:56:13.392Z,11.20
2018-03-14T09:58:40.931Z,12.30
2018-03-14T10:01:08.448Z,11.60
2018-03-14T10:03:36.731Z,11.10
2018-03-14T10:06:04.244Z,11.93
2018-03-14T10:08:32.547Z,9.85
2018-03-14T10:11:00.147Z,11.25
2018-03-14T10:13:27.642Z,10.48
2018-03-14T10:15:55.184Z,10.50
2018-03-14T10:18:22.703Z,11.23
2018-03-14T10:20:50.230Z,10.45
2018-03-14T10:23:17.750Z,10.55
2018-03-14T10:25:45.428Z,11.00
2018-03-14T10:28:12.806Z,9.70
2018-03-14T10:30:41.764Z,10.45
2018-03-14T10:33:09.292Z,9.90
2018-03-14T10:35:36.887Z,9.65
2018-03-14T10:38:04.411Z,9.10
2018-03-14T10:40:31.970Z,10.45
2018-03-14T10:43:00.298Z,10.18
2018-03-14T10:45:27.836Z,11.60
2018-03-14T10:47:55.373Z,10.90
2018-03-14T10:50:23.745Z,10.80
2018-03-14T10:52:51.923Z,11.02
2018-03-14T10:55:20.508Z,12.82
2018-03-14T10:57:47.993Z,11.63
2018-03-14T11:00:21.121Z,11.95
2018-03-14T11:03:08.490Z,11.77
2018-03-14T11:05:36.023Z,11.27
2018-03-14T11:08:03.554Z,13.38
2018-03-14T11:10:31.066Z,11.50
2018-03-14T11:12:59.368Z,11.27
2018-03-14T11:15:26.983Z,9.65
2018-03-14T11:17:54.600Z,12.10
2018-03-14T11:20:22.169Z,9.90
2018-03-14T11:22:49.710Z,10.23
2018-03-14T11:25:17.236Z,10.27
2018-03-14T11:27:44.755Z,9.63
2018-03-14T11:30:12.303Z,9.48
2018-03-14T11:32:39.839Z,7.78
2018-03-14T11:35:07.349Z,9.32
2018-03-14T11:37:34.883Z,9.30
2018-03-14T11:40:02.423Z,7.80
2018-03-14T11:42:29.916Z,9.05
2018-03-14T11:44:57.444Z,10.75
2018-03-14T11:47:24.999Z,10.57
2018-03-14T11:49:52.546Z,9.23
2018-03-14T11:52:20.074Z,9.55
2018-03-14T11:54:47.595Z,9.82
2018-03-14T11:57:15.151Z,11.38
2018-03-14T11:59:42.754Z,10.70
2018-03-14T12:02:10.284Z,10.13
2018-03-14T12:04:37.819Z,10.63
2018-03-14T12:07:05.380Z,10.52
2018-03-14T12:09:33.835Z,11.52
2018-03-14T12:12:02.116Z,11.25
2018-03-14T12:14:30.387Z,9.90
2018-03-14T12:16:58.674Z,11.95
2018-03-14T12:19:26.199Z,12.57
2018-03-14T12:21:53.712Z,10.35
2018-03-14T12:24:21.265Z,10.07
2018-03-14T12:26:48.773Z,10.55
2018-03-14T12:29:16.315Z,9.85
2018-03-14T12:31:43.871Z,10.18
2018-03-14T12:34:11.416Z,10.45
2018-03-14T12:36:38.942Z,9.07
2018-03-14T12:39:07.307Z,11.05
2018-03-14T12:41:34.820Z,10.43
2018-03-14T12:44:02.336Z,10.90
2018-03-14T12:46:30.633Z,9.45
2018-03-14T12:48:58.148Z,9.80
2018-03-14T12:51:25.663Z,10.90
2018-03-14T12:53:53.201Z,11.23
2018-03-14T12:56:21.491Z,9.52
2018-03-14T12:58:49.027Z,11.43
2018-03-14T13:01:16.558Z,10.48
2018-03-14T13:03:44.113Z,9.77
2018-03-14T13:06:11.637Z,11.43
2018-03-14T13:08:39.158Z,11.25
2018-03-14T13:11:07.479Z,10.23
2018-03-14T13:13:35.037Z,11.52
2018-03-14T13:16:02.564Z,11.32
2018-03-14T13:18:30.865Z,10.88
2018-03-14T13:20:58.397Z,10.07
2018-03-14T13:23:25.957Z,11.25
2018-03-14T13:25:54.270Z,10.02
2018-03-14T13:28:21.838Z,11.05
2018-03-14T13:30:49.367Z,10.85
2018-03-14T13:33:16.875Z,11.10
2018-03-14T13:35:44.393Z,10.98
2018-03-14T13:38:11.971Z,11.18
2018-03-14T13:40:40.312Z,10.52
2018-03-14T13:43:07.849Z,11.02
2018-03-14T13:45:35.353Z,10.00
2018-03-14T13:48:02.860Z,9.88
2018-03-14T13:50:30.402Z,11.57
2018-03-14T13:52:57.902Z,9.45
2018-03-14T13:55:26.194Z,9.60
2018-03-14T13:57:54.493Z,9.43
2018-03-14T14:00:22.037Z,10.02
2018-03-14T14:02:49.568Z,9.80
2018-03-14T14:05:17.334Z,9.75
2018-03-14T14:07:44.933Z,9.73
2018-03-14T14:10:13.183Z,8.82
2018-03-14T14:12:41.466Z,10.35
2018-03-14T14:15:08.997Z,7.57
2018-03-14T14:17:36.536Z,9.45
2018-03-14T14:20:04.051Z,9.70
2018-03-14T14:22:32.358Z,8.40
2018-03-14T14:24:59.905Z,9.25
2018-03-14T14:27:27.402Z,10.18
2018-03-14T14:29:55.028Z,8.55
2018-03-14T14:32:22.551Z,7.60
2018-03-14T14:34:50.840Z,6.72
2018-03-14T14:37:19.195Z,6.78
2018-03-14T14:39:46.733Z,8.05
2018-03-14T14:42:14.327Z,8.70
2018-03-14T14:44:41.856Z,9.07
2018-03-14T14:47:10.141Z,8.27
2018-03-14T14:49:37.696Z,7.85
2018-03-14T14:52:05.223Z,7.35
2018-03-14T14:54:32.886Z,8.65
2018-03-14T14:57:00.418Z,8.10
2018-03-14T14:59:28.057Z,8.93
2018-03-14T15:01:55.679Z,10.07
2018-03-14T15:04:23.194Z,9.20
2018-03-14T15:06:51.882Z,7.85
2018-03-14T15:09:20.275Z,8.45
2018-03-14T15:11:47.883Z,6.57
2018-03-14T15:14:15.466Z,8.15
2018-03-14T15:16:43.006Z,8.48
2018-03-14T15:19:10.584Z,8.60
2018-03-14T15:21:38.121Z,11.18
2018-03-14T15:24:05.783Z,9.80
2018-03-14T15:26:33.362Z,9.10
2018-03-14T15:29:00.888Z,8.43
2018-03-14T15:31:28.419Z,7.90
2018-03-14T15:33:55.927Z,9.20
2018-03-14T15:36:24.309Z,8.93
2018-03-14T15:38:51.953Z,9.52
2018-03-14T15:41:19.602Z,10.20
2018-03-14T15:43:47.222Z,8.27
2018-03-14T15:46:15.508Z,8.55
2018-03-14T15:48:44.391Z,8.55
2018-03-14T15:51:12.775Z,10.15
2018-03-14T15:53:40.480Z,9.50
2018-03-14T15:56:08.136Z,8.38
2018-03-14T15:58:35.747Z,9.70
2018-03-14T16:01:04.121Z,8.60
2018-03-14T16:03:31.746Z,7.90
2018-03-14T16:05:59.397Z,11.25
2018-03-14T16:08:26.974Z,10.27
2018-03-14T16:10:54.474Z,8.50
2018-03-14T16:13:22.931Z,8.75
2018-03-14T16:15:50.472Z,8.98
2018-03-14T16:18:18.048Z,9.63
2018-03-14T16:20:45.660Z,10.10
2018-03-14T16:23:13.188Z,9.30
2018-03-14T16:25:40.817Z,10.75
2018-03-14T16:28:08.353Z,10.75
2018-03-14T16:30:35.874Z,11.60
2018-03-14T16:33:03.454Z,11.85
2018-03-14T16:35:34.092Z,10.15
2018-03-14T16:38:01.677Z,9.93
2018-03-14T16:40:29.399Z,11.18
2018-03-14T16:42:57.759Z,12.73
2018-03-14T16:45:25.435Z,8.65
2018-03-14T16:47:53.046Z,10.30
2018-03-14T16:50:20.712Z,7.32
2018-03-14T16:52:48.329Z,7.75
2018-03-14T16:55:16.686Z,8.70
2018-03-14T16:57:44.273Z,6.75
2018-03-14T17:00:12.592Z,8.30
2018-03-14T17:02:40.218Z,8.93
2018-03-14T17:05:10.203Z,7.70
2018-03-14T17:07:37.815Z,8.80
2018-03-14T17:10:05.391Z,11.00
2018-03-14T17:12:33.884Z,9.45
2018-03-14T17:15:01.441Z,9.30
2018-03-14T17:17:29.058Z,7.85
2018-03-14T17:19:57.429Z,9.18
2018-03-14T17:22:25.105Z,7.93
2018-03-14T17:24:53.260Z,8.52
2018-03-14T17:27:20.809Z,9.45
2018-03-14T17:29:48.361Z,9.70
2018-03-14T17:32:15.922Z,9.70
2018-03-14T17:34:43.538Z,9.80
2018-03-14T17:37:11.086Z,9.90
2018-03-14T17:39:38.637Z,10.15
2018-03-14T17:42:08.247Z,10.55
2018-03-14T17:44:36.521Z,9.80
2018-03-14T17:47:04.863Z,9.55
2018-03-14T17:49:32.389Z,10.20
2018-03-14T17:51:59.911Z,11.85
2018-03-14T17:54:27.441Z,12.57
2018-03-14T17:56:54.966Z,10.55
2018-03-14T17:59:22.492Z,11.38
2018-03-14T18:01:50.029Z,11.15
2018-03-14T18:04:17.556Z,11.18
2018-03-14T18:06:45.075Z,11.27
2018-03-14T18:09:13.330Z,10.82
2018-03-14T18:11:40.999Z,11.70
2018-03-14T18:14:08.604Z,13.45
2018-03-14T18:16:36.108Z,11.68
2018-03-14T18:19:04.698Z,13.57
2018-03-14T18:21:33.007Z,13.18
2018-03-14T18:24:01.277Z,11.60
2018-03-14T18:26:29.581Z,11.85
2018-03-14T18:28:57.122Z,16.15
2018-03-14T18:31:24.660Z,12.88
2018-03-14T18:33:52.970Z,13.75
2018-03-14T18:36:20.552Z,13.43
2018-03-14T18:38:48.130Z,12.82
2018-03-14T18:41:15.637Z,12.20
2018-03-14T18:43:43.166Z,12.70
2018-03-14T18:46:11.373Z,14.63
2018-03-14T18:48:38.912Z,27.35
2018-03-14T18:51:06.493Z,12.60
2018-03-14T18:53:34.349Z,11.95
2018-03-14T18:56:01.894Z,10.70
2018-03-14T18:58:30.264Z,12.73
2018-03-14T19:00:57.785Z,12.25
2018-03-14T19:03:25.413Z,12.05
2018-03-14T19:05:53.324Z,13.05
2018-03-14T19:08:20.864Z,12.70
2018-03-14T19:10:48.926Z,11.73
2018-03-14T19:13:17.206Z,11.70
2018-03-14T19:15:44.744Z,12.52
2018-03-14T19:18:12.268Z,12.80
2018-03-14T19:20:39.803Z,21.80
2018-03-14T19:23:07.321Z,30.65
2018-03-14T19:25:34.904Z,11.10
2018-03-14T19:28:02.472Z,10.38
2018-03-14T19:30:29.995Z,8.75
2018-03-14T19:32:57.502Z,10.82
2018-03-14T19:35:25.237Z,11.45
2018-03-14T19:37:52.870Z,11.63
2018-03-14T19:40:20.457Z,10.82
2018-03-14T19:42:48.814Z,12.60
2018-03-14T19:45:16.355Z,11.20
2018-03-14T19:47:43.908Z,10.45
2018-03-14T19:50:11.485Z,9.85
2018-03-14T19:52:39.050Z,10.27
2018-03-14T19:55:06.622Z,10.63
2018-03-14T19:57:34.904Z,10.73
2018-03-14T20:00:03.222Z,13.65
2018-03-14T20:02:30.768Z,12.70
2018-03-14T20:04:58.290Z,11.10
2018-03-14T20:07:25.869Z,10.52
2018-03-14T20:09:53.390Z,11.18
2018-03-14T20:12:21.232Z,10.23
2018-03-14T20:14:48.877Z,11.73
2018-03-14T20:17:16.476Z,12.02
2018-03-14T20:19:43.986Z,13.38
2018-03-14T20:22:11.566Z,13.95
2018-03-14T20:24:39.131Z,14.40
2018-03-14T20:27:06.680Z,13.60
2018-03-14T20:29:34.200Z,13.93
2018-03-14T20:32:01.757Z,15.65
2018-03-14T20:34:29.282Z,14.02
2018-03-14T20:36:56.800Z,12.43
2018-03-14T20:39:24.327Z,12.43
2018-03-14T20:41:51.861Z,12.82
2018-03-14T20:44:19.420Z,12.48
2018-03-14T20:46:47.019Z,11.70
2018-03-14T20:49:16.211Z,11.65
2018-03-14T20:51:43.763Z,12.75
2018-03-14T20:54:11.478Z,11.05
2018-03-14T20:56:39.063Z,13.02
2018-03-14T20:59:06.627Z,12.30
2018-03-14T21:01:34.200Z,14.85
2018-03-14T21:04:01.759Z,10.93
2018-03-14T21:06:29.318Z,14.38
2018-03-14T21:08:56.833Z,16.75
2018-03-14T21:11:24.355Z,13.98
2018-03-14T21:13:53.479Z,15.13
2018-03-14T21:16:22.412Z,12.55
2018-03-14T21:18:49.966Z,17.02
2018-03-14T21:21:17.492Z,13.73
2018-03-14T21:23:45.027Z,13.15
2018-03-14T21:26:12.547Z,13.45
2018-03-14T21:28:40.103Z,13.73
2018-03-14T21:54:14.223Z,14.68
2018-03-14T21:56:41.737Z,13.15
2018-03-14T21:59:10.096Z,12.35
2018-03-14T22:01:37.669Z,14.63
2018-03-14T22:04:05.501Z,12.75
2018-03-14T22:06:33.772Z,13.98
2018-03-14T22:09:02.060Z,13.77
2018-03-14T22:11:30.355Z,14.48
2018-03-14T22:13:57.978Z,14.02
2018-03-14T22:16:25.495Z,16.60
2018-03-14T22:18:53.011Z,15.63
2018-03-14T22:21:20.550Z,15.35
2018-03-14T22:23:48.169Z,14.70
2018-03-14T22:26:15.711Z,14.70
2018-03-14T22:28:43.247Z,14.52
2018-03-14T22:31:11.575Z,15.50
2018-03-14T22:33:39.095Z,14.15
2018-03-14T22:36:06.618Z,14.95
2018-03-14T22:38:34.137Z,15.35
2018-03-14T22:41:01.663Z,14.23
2018-03-14T22:43:30.060Z,16.45
2018-03-14T22:45:57.583Z,14.45
2018-03-14T22:48:25.089Z,15.23
2018-03-14T22:50:52.593Z,16.50
2018-03-14T22:53:20.124Z,14.98
2018-03-14T22:55:47.713Z,14.00
2018-03-14T22:58:15.221Z,14.68
2018-03-14T23:00:42.772Z,14.95
2018-03-14T23:03:11.076Z,16.75
2018-03-14T23:05:38.559Z,13.02
2018-03-14T23:08:06.085Z,16.08
2018-03-14T23:10:33.588Z,15.48
2018-03-14T23:13:01.098Z,14.25
2018-03-14T23:15:28.649Z,14.43
2018-03-14T23:17:56.960Z,14.15
2018-03-14T23:20:24.493Z,13.25
2018-03-14T23:22:52.833Z,13.93
2018-03-14T23:25:20.391Z,14.87
2018-03-14T23:27:47.900Z,15.80
2018-03-14T23:30:15.460Z,14.82
2018-03-14T23:32:43.003Z,14.52
2018-03-14T23:35:11.303Z,13.88
2018-03-14T23:37:38.801Z,14.90
2018-03-14T23:40:06.369Z,14.52
2018-03-14T23:42:33.878Z,13.90
2018-03-14T23:45:01.380Z,15.25
2018-03-14T23:47:28.908Z,14.65
2018-03-14T23:49:56.429Z,14.02
2018-03-14T23:52:24.718Z,15.52
2018-03-14T23:54:52.985Z,14.50
2018-03-14T23:57:21.287Z,14.73
2018-03-14T23:59:48.805Z,15.82
